sensor_id;sensor_type;location;lat;lon;timestamp;temperature;humidity
23395;DHT22;11870;53.084;18.206;2023-01-28T00:00:09;-0.90;99.90
23395;DHT22;11870;53.084;18.206;2023-01-28T00:02:55;-0.80;99.90
23395;DHT22;11870;53.084;18.206;2023-01-28T00:05:21;-0.80;99.90
23395;DHT22;11870;53.084;18.206;2023-01-28T00:10:17;-0.80;99.90
23395;DHT22;11870;53.084;18.206;2023-01-28T00:12:43;-0.80;99.90
23395;DHT22;11870;53.084;18.206;2023-01-28T00:15:10;-0.70;99.90
23395;DHT22;11870;53.084;18.206;2023-01-28T00:17:36;-0.80;99.90
23395;DHT22;11870;53.084;18.206;2023-01-28T00:20:03;-0.70;99.90
23395;DHT22;11870;53.084;18.206;2023-01-28T00:22:30;-0.80;99.90
23395;DHT22;11870;53.084;18.206;2023-01-28T00:24:56;-0.80;99.90
23395;DHT22;11870;53.084;18.206;2023-01-28T00:27:22;-0.90;99.90
23395;DHT22;11870;53.084;18.206;2023-01-28T00:29:48;-1.00;99.90
23395;DHT22;11870;53.084;18.206;2023-01-28T00:32:14;-1.00;99.90
23395;DHT22;11870;53.084;18.206;2023-01-28T00:34:40;-1.00;99.90
23395;DHT22;11870;53.084;18.206;2023-01-28T00:37:06;-1.00;99.90
23395;DHT22;11870;53.084;18.206;2023-01-28T00:39:32;-1.00;99.90
23395;DHT22;11870;53.084;18.206;2023-01-28T00:41:58;-1.10;99.90
23395;DHT22;11870;53.084;18.206;2023-01-28T00:44:24;-1.10;99.90
23395;DHT22;11870;53.084;18.206;2023-01-28T00:46:50;-1.00;99.90
23395;DHT22;11870;53.084;18.206;2023-01-28T00:49:16;-1.00;99.90
23395;DHT22;11870;53.084;18.206;2023-01-28T00:51:42;-1.00;99.90
23395;DHT22;11870;53.084;18.206;2023-01-28T00:54:09;-0.90;99.90
23395;DHT22;11870;53.084;18.206;2023-01-28T00:56:36;-1.00;99.90
23395;DHT22;11870;53.084;18.206;2023-01-28T00:59:02;-1.00;99.90
23395;DHT22;11870;53.084;18.206;2023-01-28T01:01:28;-0.90;99.90
23395;DHT22;11870;53.084;18.206;2023-01-28T01:03:54;-0.80;99.90
23395;DHT22;11870;53.084;18.206;2023-01-28T01:06:32;-0.80;99.90
23395;DHT22;11870;53.084;18.206;2023-01-28T01:09:00;-0.90;99.90
23395;DHT22;11870;53.084;18.206;2023-01-28T01:11:26;-0.90;99.90
23395;DHT22;11870;53.084;18.206;2023-01-28T01:13:54;-0.90;99.90
23395;DHT22;11870;53.084;18.206;2023-01-28T01:16:23;-0.80;99.90
23395;DHT22;11870;53.084;18.206;2023-01-28T01:18:50;-0.80;99.90
23395;DHT22;11870;53.084;18.206;2023-01-28T01:21:20;-0.80;99.90
23395;DHT22;11870;53.084;18.206;2023-01-28T01:23:46;-0.70;99.90
23395;DHT22;11870;53.084;18.206;2023-01-28T01:26:13;-0.70;99.90
23395;DHT22;11870;53.084;18.206;2023-01-28T01:28:39;-0.80;99.90
23395;DHT22;11870;53.084;18.206;2023-01-28T01:31:16;-0.80;99.90
23395;DHT22;11870;53.084;18.206;2023-01-28T01:33:43;-0.70;99.90
23395;DHT22;11870;53.084;18.206;2023-01-28T01:36:11;-0.70;99.90
23395;DHT22;11870;53.084;18.206;2023-01-28T01:38:37;-0.70;99.90
23395;DHT22;11870;53.084;18.206;2023-01-28T01:41:05;-0.60;99.90
23395;DHT22;11870;53.084;18.206;2023-01-28T01:43:56;-0.60;99.90
23395;DHT22;11870;53.084;18.206;2023-01-28T01:46:46;-0.60;99.90
23395;DHT22;11870;53.084;18.206;2023-01-28T01:49:24;-0.60;99.90
23395;DHT22;11870;53.084;18.206;2023-01-28T01:51:59;-0.60;99.90
23395;DHT22;11870;53.084;18.206;2023-01-28T01:54:28;-0.60;99.90
23395;DHT22;11870;53.084;18.206;2023-01-28T01:56:57;-0.60;99.90
23395;DHT22;11870;53.084;18.206;2023-01-28T01:59:29;-0.50;99.90
23395;DHT22;11870;53.084;18.206;2023-01-28T02:01:59;-0.50;99.90
23395;DHT22;11870;53.084;18.206;2023-01-28T02:04:28;-0.50;99.90
23395;DHT22;11870;53.084;18.206;2023-01-28T02:06:57;-0.50;99.90
23395;DHT22;11870;53.084;18.206;2023-01-28T02:09:30;-0.50;99.90
23395;DHT22;11870;53.084;18.206;2023-01-28T02:12:00;-0.50;99.90
23395;DHT22;11870;53.084;18.206;2023-01-28T02:14:30;-0.40;99.90
23395;DHT22;11870;53.084;18.206;2023-01-28T02:16:58;-0.50;99.90
23395;DHT22;11870;53.084;18.206;2023-01-28T02:19:28;-0.50;99.90
23395;DHT22;11870;53.084;18.206;2023-01-28T02:22:19;-0.60;99.90
23395;DHT22;11870;53.084;18.206;2023-01-28T02:30:21;-0.50;99.90
23395;DHT22;11870;53.084;18.206;2023-01-28T02:32:56;-0.60;99.90
23395;DHT22;11870;53.084;18.206;2023-01-28T02:35:34;-0.70;99.90
23395;DHT22;11870;53.084;18.206;2023-01-28T02:38:11;-0.60;99.90
23395;DHT22;11870;53.084;18.206;2023-01-28T02:40:42;-0.60;99.90
23395;DHT22;11870;53.084;18.206;2023-01-28T02:43:39;-0.60;99.90
23395;DHT22;11870;53.084;18.206;2023-01-28T02:46:16;-0.60;99.90
23395;DHT22;11870;53.084;18.206;2023-01-28T02:49:05;-0.60;99.90
23395;DHT22;11870;53.084;18.206;2023-01-28T02:51:42;-0.60;99.90
23395;DHT22;11870;53.084;18.206;2023-01-28T02:54:15;-0.60;99.90
23395;DHT22;11870;53.084;18.206;2023-01-28T02:56:52;-0.50;99.90
23395;DHT22;11870;53.084;18.206;2023-01-28T02:59:25;-0.50;99.90
23395;DHT22;11870;53.084;18.206;2023-01-28T03:02:10;-0.50;99.90
23395;DHT22;11870;53.084;18.206;2023-01-28T03:07:28;-0.50;99.90
23395;DHT22;11870;53.084;18.206;2023-01-28T03:09:57;-0.50;99.90
23395;DHT22;11870;53.084;18.206;2023-01-28T03:12:27;-0.60;99.90
23395;DHT22;11870;53.084;18.206;2023-01-28T03:15:22;-0.60;99.90
23395;DHT22;11870;53.084;18.206;2023-01-28T03:18:15;-0.60;99.90
23395;DHT22;11870;53.084;18.206;2023-01-28T03:21:42;-0.60;99.90
23395;DHT22;11870;53.084;18.206;2023-01-28T03:24:22;-0.50;99.90
23395;DHT22;11870;53.084;18.206;2023-01-28T03:27:18;-0.50;99.90
23395;DHT22;11870;53.084;18.206;2023-01-28T03:30:22;-0.50;99.90
23395;DHT22;11870;53.084;18.206;2023-01-28T03:33:07;-0.50;99.90
23395;DHT22;11870;53.084;18.206;2023-01-28T03:35:52;-0.50;99.90
23395;DHT22;11870;53.084;18.206;2023-01-28T03:38:40;-0.50;99.90
23395;DHT22;11870;53.084;18.206;2023-01-28T03:41:20;-0.60;99.90
23395;DHT22;11870;53.084;18.206;2023-01-28T03:43:48;-0.60;99.90
23395;DHT22;11870;53.084;18.206;2023-01-28T03:46:14;-0.60;99.90
23395;DHT22;11870;53.084;18.206;2023-01-28T03:48:40;-0.50;99.90
23395;DHT22;11870;53.084;18.206;2023-01-28T03:51:06;-0.60;99.90
23395;DHT22;11870;53.084;18.206;2023-01-28T03:53:32;-0.50;99.90
23395;DHT22;11870;53.084;18.206;2023-01-28T03:55:58;-0.50;99.90
23395;DHT22;11870;53.084;18.206;2023-01-28T03:58:24;-0.50;99.90
23395;DHT22;11870;53.084;18.206;2023-01-28T04:01:09;-0.50;99.90
23395;DHT22;11870;53.084;18.206;2023-01-28T04:03:35;-0.50;99.90
23395;DHT22;11870;53.084;18.206;2023-01-28T04:06:04;-0.40;99.90
23395;DHT22;11870;53.084;18.206;2023-01-28T04:08:30;-0.40;99.90
23395;DHT22;11870;53.084;18.206;2023-01-28T04:10:56;-0.50;99.90
23395;DHT22;11870;53.084;18.206;2023-01-28T04:13:22;-0.50;99.90
23395;DHT22;11870;53.084;18.206;2023-01-28T04:15:48;-0.60;99.90
23395;DHT22;11870;53.084;18.206;2023-01-28T04:18:15;-0.50;99.90
23395;DHT22;11870;53.084;18.206;2023-01-28T04:20:40;-0.50;99.90
23395;DHT22;11870;53.084;18.206;2023-01-28T04:23:07;-0.40;99.90
23395;DHT22;11870;53.084;18.206;2023-01-28T04:25:33;-0.40;99.90
23395;DHT22;11870;53.084;18.206;2023-01-28T04:27:59;-0.30;99.90
23395;DHT22;11870;53.084;18.206;2023-01-28T04:30:25;-0.30;99.90
23395;DHT22;11870;53.084;18.206;2023-01-28T04:32:52;-0.30;99.90
23395;DHT22;11870;53.084;18.206;2023-01-28T04:35:19;-0.40;99.90
23395;DHT22;11870;53.084;18.206;2023-01-28T04:37:45;-0.30;99.90
23395;DHT22;11870;53.084;18.206;2023-01-28T04:40:12;-0.30;99.90
23395;DHT22;11870;53.084;18.206;2023-01-28T04:42:38;-0.30;99.90
23395;DHT22;11870;53.084;18.206;2023-01-28T04:45:04;-0.30;99.90
23395;DHT22;11870;53.084;18.206;2023-01-28T04:47:31;-0.30;99.90
23395;DHT22;11870;53.084;18.206;2023-01-28T04:49:56;-0.40;99.90
23395;DHT22;11870;53.084;18.206;2023-01-28T04:52:22;-0.40;99.90
23395;DHT22;11870;53.084;18.206;2023-01-28T04:54:48;-0.50;99.90
23395;DHT22;11870;53.084;18.206;2023-01-28T04:57:14;-0.50;99.90
23395;DHT22;11870;53.084;18.206;2023-01-28T05:04:33;-0.50;99.90
23395;DHT22;11870;53.084;18.206;2023-01-28T05:06:59;-0.60;99.90
23395;DHT22;11870;53.084;18.206;2023-01-28T05:09:25;-0.50;99.90
23395;DHT22;11870;53.084;18.206;2023-01-28T05:11:51;-0.60;99.90
23395;DHT22;11870;53.084;18.206;2023-01-28T05:19:10;-0.60;99.90
23395;DHT22;11870;53.084;18.206;2023-01-28T05:21:36;-0.60;99.90
23395;DHT22;11870;53.084;18.206;2023-01-28T05:24:01;-0.60;99.90
23395;DHT22;11870;53.084;18.206;2023-01-28T05:50:51;-0.30;99.90
23395;DHT22;11870;53.084;18.206;2023-01-28T05:53:16;-0.30;99.90
23395;DHT22;11870;53.084;18.206;2023-01-28T06:12:46;-0.30;99.90
23395;DHT22;11870;53.084;18.206;2023-01-28T06:15:12;-0.40;99.90
23395;DHT22;11870;53.084;18.206;2023-01-28T06:17:38;-0.40;99.90
23395;DHT22;11870;53.084;18.206;2023-01-28T06:20:05;-0.40;99.90
23395;DHT22;11870;53.084;18.206;2023-01-28T06:24:57;-0.40;99.90
23395;DHT22;11870;53.084;18.206;2023-01-28T06:27:23;-0.30;99.90
23395;DHT22;11870;53.084;18.206;2023-01-28T06:29:49;-0.40;99.90
23395;DHT22;11870;53.084;18.206;2023-01-28T07:01:32;-0.30;99.90
23395;DHT22;11870;53.084;18.206;2023-01-28T07:21:03;-0.20;99.90
23395;DHT22;11870;53.084;18.206;2023-01-28T07:26:00;-0.20;99.90
23395;DHT22;11870;53.084;18.206;2023-01-28T07:35:47;0.00;99.90
23395;DHT22;11870;53.084;18.206;2023-01-28T07:48:05;0.20;99.90
23395;DHT22;11870;53.084;18.206;2023-01-28T07:50:33;0.30;99.90
23395;DHT22;11870;53.084;18.206;2023-01-28T07:53:04;0.20;99.90
23395;DHT22;11870;53.084;18.206;2023-01-28T07:58:02;0.40;99.90
23395;DHT22;11870;53.084;18.206;2023-01-28T08:00:31;0.40;99.90
23395;DHT22;11870;53.084;18.206;2023-01-28T08:03:05;0.40;99.90
23395;DHT22;11870;53.084;18.206;2023-01-28T08:05:41;0.40;99.90
23395;DHT22;11870;53.084;18.206;2023-01-28T08:08:09;0.50;99.90
23395;DHT22;11870;53.084;18.206;2023-01-28T08:17:58;0.80;99.90
23395;DHT22;11870;53.084;18.206;2023-01-28T08:20:26;0.80;99.90
23395;DHT22;11870;53.084;18.206;2023-01-28T08:35:04;1.20;99.90
23395;DHT22;11870;53.084;18.206;2023-01-28T09:36:08;2.50;99.90
23395;DHT22;11870;53.084;18.206;2023-01-28T09:41:08;2.50;99.90
23395;DHT22;11870;53.084;18.206;2023-01-28T09:46:32;2.60;99.90
23395;DHT22;11870;53.084;18.206;2023-01-28T09:48:59;2.60;99.90
23395;DHT22;11870;53.084;18.206;2023-01-28T09:51:35;2.60;99.90
23395;DHT22;11870;53.084;18.206;2023-01-28T09:54:10;2.70;99.90
23395;DHT22;11870;53.084;18.206;2023-01-28T09:56:41;2.90;99.90
23395;DHT22;11870;53.084;18.206;2023-01-28T09:59:19;3.00;99.90
23395;DHT22;11870;53.084;18.206;2023-01-28T10:02:17;2.90;99.90
23395;DHT22;11870;53.084;18.206;2023-01-28T10:18:30;3.00;99.90
23395;DHT22;11870;53.084;18.206;2023-01-28T10:21:06;3.00;99.90
23395;DHT22;11870;53.084;18.206;2023-01-28T10:26:38;2.90;99.90
23395;DHT22;11870;53.084;18.206;2023-01-28T10:29:22;3.00;99.90
23395;DHT22;11870;53.084;18.206;2023-01-28T10:31:54;3.00;99.90
23395;DHT22;11870;53.084;18.206;2023-01-28T10:34:21;2.90;99.90
23395;DHT22;11870;53.084;18.206;2023-01-28T10:39:20;3.00;99.90
23395;DHT22;11870;53.084;18.206;2023-01-28T10:44:31;3.10;99.90
23395;DHT22;11870;53.084;18.206;2023-01-28T10:47:02;3.10;99.90
23395;DHT22;11870;53.084;18.206;2023-01-28T10:49:30;3.10;99.90
23395;DHT22;11870;53.084;18.206;2023-01-28T10:54:25;3.10;99.90
23395;DHT22;11870;53.084;18.206;2023-01-28T10:56:59;3.10;99.90
23395;DHT22;11870;53.084;18.206;2023-01-28T10:59:31;3.20;99.90
23395;DHT22;11870;53.084;18.206;2023-01-28T11:04:32;3.30;99.90
23395;DHT22;11870;53.084;18.206;2023-01-28T11:07:01;3.20;99.90
23395;DHT22;11870;53.084;18.206;2023-01-28T11:09:30;3.10;99.90
23395;DHT22;11870;53.084;18.206;2023-01-28T11:11:58;3.00;99.90
23395;DHT22;11870;53.084;18.206;2023-01-28T11:14:26;3.10;99.90
23395;DHT22;11870;53.084;18.206;2023-01-28T11:16:54;3.00;99.90
23395;DHT22;11870;53.084;18.206;2023-01-28T11:19:26;2.80;99.90
23395;DHT22;11870;53.084;18.206;2023-01-28T11:21:55;2.80;99.90
23395;DHT22;11870;53.084;18.206;2023-01-28T11:24:25;2.80;99.90
23395;DHT22;11870;53.084;18.206;2023-01-28T11:26:54;2.90;99.90
23395;DHT22;11870;53.084;18.206;2023-01-28T11:29:31;2.90;99.90
23395;DHT22;11870;53.084;18.206;2023-01-28T11:31:58;2.90;99.90
23395;DHT22;11870;53.084;18.206;2023-01-28T11:34:27;2.90;99.90
23395;DHT22;11870;53.084;18.206;2023-01-28T11:37:01;2.80;99.90
23395;DHT22;11870;53.084;18.206;2023-01-28T11:39:29;2.90;99.90
23395;DHT22;11870;53.084;18.206;2023-01-28T11:55:53;2.80;99.90
23395;DHT22;11870;53.084;18.206;2023-01-28T12:01:08;2.80;99.90
23395;DHT22;11870;53.084;18.206;2023-01-28T12:04:09;2.70;99.90
23395;DHT22;11870;53.084;18.206;2023-01-28T12:06:55;2.80;99.90
23395;DHT22;11870;53.084;18.206;2023-01-28T12:09:54;2.80;99.90
23395;DHT22;11870;53.084;18.206;2023-01-28T12:15:23;2.70;99.90
23395;DHT22;11870;53.084;18.206;2023-01-28T12:42:34;2.20;99.90
23395;DHT22;11870;53.084;18.206;2023-01-28T12:45:15;2.10;99.90
23395;DHT22;11870;53.084;18.206;2023-01-28T12:47:48;2.00;99.90
23395;DHT22;11870;53.084;18.206;2023-01-28T12:50:24;2.00;99.90
23395;DHT22;11870;53.084;18.206;2023-01-28T12:53:24;2.10;99.90
23395;DHT22;11870;53.084;18.206;2023-01-28T12:55:53;2.00;99.90
23395;DHT22;11870;53.084;18.206;2023-01-28T12:59:01;2.20;99.90
23395;DHT22;11870;53.084;18.206;2023-01-28T13:01:34;2.00;99.90
23395;DHT22;11870;53.084;18.206;2023-01-28T13:06:43;1.90;99.90
23395;DHT22;11870;53.084;18.206;2023-01-28T13:09:17;1.90;99.90
23395;DHT22;11870;53.084;18.206;2023-01-28T13:11:46;1.80;99.90
23395;DHT22;11870;53.084;18.206;2023-01-28T13:26:53;1.60;99.90
23395;DHT22;11870;53.084;18.206;2023-01-28T13:29:31;1.60;99.90
23395;DHT22;11870;53.084;18.206;2023-01-28T13:32:00;1.50;99.90
23395;DHT22;11870;53.084;18.206;2023-01-28T13:34:36;1.50;99.90
23395;DHT22;11870;53.084;18.206;2023-01-28T13:39:50;1.50;99.90
23395;DHT22;11870;53.084;18.206;2023-01-28T13:42:23;1.50;99.90
23395;DHT22;11870;53.084;18.206;2023-01-28T13:47:33;1.30;99.90
23395;DHT22;11870;53.084;18.206;2023-01-28T13:50:10;1.20;99.90
23395;DHT22;11870;53.084;18.206;2023-01-28T13:52:49;1.30;99.90
23395;DHT22;11870;53.084;18.206;2023-01-28T13:55:22;1.30;99.90
23395;DHT22;11870;53.084;18.206;2023-01-28T14:17:24;1.00;99.90
23395;DHT22;11870;53.084;18.206;2023-01-28T14:19:56;1.00;99.90
23395;DHT22;11870;53.084;18.206;2023-01-28T14:27:26;1.00;99.90
23395;DHT22;11870;53.084;18.206;2023-01-28T14:32:29;0.90;99.90
23395;DHT22;11870;53.084;18.206;2023-01-28T14:35:03;0.80;99.90
23395;DHT22;11870;53.084;18.206;2023-01-28T14:37:31;0.80;99.90
23395;DHT22;11870;53.084;18.206;2023-01-28T14:40:06;0.80;99.90
23395;DHT22;11870;53.084;18.206;2023-01-28T14:42:47;0.90;99.90
23395;DHT22;11870;53.084;18.206;2023-01-28T14:48:37;0.90;99.90
23395;DHT22;11870;53.084;18.206;2023-01-28T14:51:22;0.90;99.90
23395;DHT22;11870;53.084;18.206;2023-01-28T14:59:25;0.60;99.90
23395;DHT22;11870;53.084;18.206;2023-01-28T15:01:58;0.80;99.90
23395;DHT22;11870;53.084;18.206;2023-01-28T15:04:27;0.80;99.90
23395;DHT22;11870;53.084;18.206;2023-01-28T15:11:49;0.70;99.90
23395;DHT22;11870;53.084;18.206;2023-01-28T15:14:26;0.70;99.90
23395;DHT22;11870;53.084;18.206;2023-01-28T15:19:29;0.60;99.90
23395;DHT22;11870;53.084;18.206;2023-01-28T15:21:57;0.50;99.90
23395;DHT22;11870;53.084;18.206;2023-01-28T15:29:49;0.50;99.90
23395;DHT22;11870;53.084;18.206;2023-01-28T15:32:27;0.40;99.90
23395;DHT22;11870;53.084;18.206;2023-01-28T15:42:20;0.70;99.90
23395;DHT22;11870;53.084;18.206;2023-01-28T15:44:48;0.50;99.90
23395;DHT22;11870;53.084;18.206;2023-01-28T15:47:22;0.30;99.90
23395;DHT22;11870;53.084;18.206;2023-01-28T15:49:53;0.10;99.90
23395;DHT22;11870;53.084;18.206;2023-01-28T15:52:20;0.10;99.90
23395;DHT22;11870;53.084;18.206;2023-01-28T15:57:33;-0.30;99.90
23395;DHT22;11870;53.084;18.206;2023-01-28T16:02:32;-0.20;99.90
23395;DHT22;11870;53.084;18.206;2023-01-28T16:05:00;-0.30;99.90
23395;DHT22;11870;53.084;18.206;2023-01-28T16:07:29;-0.30;99.90
23395;DHT22;11870;53.084;18.206;2023-01-28T16:10:00;-0.30;99.90
23395;DHT22;11870;53.084;18.206;2023-01-28T16:14:59;-0.20;99.90
23395;DHT22;11870;53.084;18.206;2023-01-28T16:17:29;-0.10;99.90
23395;DHT22;11870;53.084;18.206;2023-01-28T16:20:01;-0.20;99.90
23395;DHT22;11870;53.084;18.206;2023-01-28T16:22:36;0.00;99.90
23395;DHT22;11870;53.084;18.206;2023-01-28T16:25:56;-0.10;99.90
23395;DHT22;11870;53.084;18.206;2023-01-28T16:30:16;0.00;99.90
23395;DHT22;11870;53.084;18.206;2023-01-28T16:35:14;-0.10;99.90
23395;DHT22;11870;53.084;18.206;2023-01-28T16:40:14;-0.10;99.90
23395;DHT22;11870;53.084;18.206;2023-01-28T16:45:16;-0.10;99.90
23395;DHT22;11870;53.084;18.206;2023-01-28T16:50:10;-0.10;99.90
23395;DHT22;11870;53.084;18.206;2023-01-28T16:55:03;0.00;99.90
23395;DHT22;11870;53.084;18.206;2023-01-28T16:57:31;0.00;99.90
23395;DHT22;11870;53.084;18.206;2023-01-28T17:21:57;-0.20;99.90
23395;DHT22;11870;53.084;18.206;2023-01-28T17:26:51;-0.30;99.90
23395;DHT22;11870;53.084;18.206;2023-01-28T17:39:04;-0.30;99.90
23395;DHT22;11870;53.084;18.206;2023-01-28T17:48:52;-0.30;99.90
23395;DHT22;11870;53.084;18.206;2023-01-28T17:53:49;-0.30;99.90
23395;DHT22;11870;53.084;18.206;2023-01-28T18:40:11;-0.20;99.90
23395;DHT22;11870;53.084;18.206;2023-01-28T19:02:12;-0.10;99.90
23395;DHT22;11870;53.084;18.206;2023-01-28T19:24:11;-0.10;99.90
23395;DHT22;11870;53.084;18.206;2023-01-28T19:29:06;-0.10;99.90
23395;DHT22;11870;53.084;18.206;2023-01-28T19:36:29;0.00;99.90
23395;DHT22;11870;53.084;18.206;2023-01-28T19:39:00;0.00;99.90
23395;DHT22;11870;53.084;18.206;2023-01-28T19:51:14;0.10;99.90
23395;DHT22;11870;53.084;18.206;2023-01-28T19:53:41;0.10;99.90
23395;DHT22;11870;53.084;18.206;2023-01-28T19:56:13;0.10;99.90
23395;DHT22;11870;53.084;18.206;2023-01-28T19:58:41;0.00;99.90
23395;DHT22;11870;53.084;18.206;2023-01-28T20:01:13;-0.20;99.90
23395;DHT22;11870;53.084;18.206;2023-01-28T20:06:10;-0.20;99.90
23395;DHT22;11870;53.084;18.206;2023-01-28T20:13:30;-0.20;99.90
23395;DHT22;11870;53.084;18.206;2023-01-28T20:18:24;-0.20;99.90
23395;DHT22;11870;53.084;18.206;2023-01-28T20:20:54;-0.30;99.90
23395;DHT22;11870;53.084;18.206;2023-01-28T20:23:21;-0.20;99.90
23395;DHT22;11870;53.084;18.206;2023-01-28T20:25:54;-0.30;99.90
23395;DHT22;11870;53.084;18.206;2023-01-28T20:28:21;-0.20;99.90
23395;DHT22;11870;53.084;18.206;2023-01-28T20:35:41;-0.10;99.90
23395;DHT22;11870;53.084;18.206;2023-01-28T20:40:35;-0.10;99.90
23395;DHT22;11870;53.084;18.206;2023-01-28T20:45:30;-0.10;99.90
23395;DHT22;11870;53.084;18.206;2023-01-28T21:00:10;0.10;99.90
23395;DHT22;11870;53.084;18.206;2023-01-28T21:02:38;0.10;99.90
23395;DHT22;11870;53.084;18.206;2023-01-28T21:05:05;0.00;99.90
23395;DHT22;11870;53.084;18.206;2023-01-28T21:54:18;0.20;99.90
23395;DHT22;11870;53.084;18.206;2023-01-28T21:56:46;0.20;99.90
23395;DHT22;11870;53.084;18.206;2023-01-28T22:11:42;0.00;99.90
23395;DHT22;11870;53.084;18.206;2023-01-28T22:31:15;-0.70;99.90
23395;DHT22;11870;53.084;18.206;2023-01-28T22:33:41;-0.60;99.90
23395;DHT22;11870;53.084;18.206;2023-01-28T22:36:11;-0.70;99.90
23395;DHT22;11870;53.084;18.206;2023-01-28T22:41:06;-0.50;99.90
23395;DHT22;11870;53.084;18.206;2023-01-28T23:10:46;-0.10;99.90
23395;DHT22;11870;53.084;18.206;2023-01-28T23:13:24;-0.10;99.90
23395;DHT22;11870;53.084;18.206;2023-01-28T23:18:36;-0.20;99.90
23395;DHT22;11870;53.084;18.206;2023-01-28T23:21:23;-0.30;99.90
23395;DHT22;11870;53.084;18.206;2023-01-28T23:24:17;-0.40;99.90
23395;DHT22;11870;53.084;18.206;2023-01-28T23:26:51;-0.60;99.90
23395;DHT22;11870;53.084;18.206;2023-01-28T23:29:25;-0.70;99.90
23395;DHT22;11870;53.084;18.206;2023-01-28T23:31:54;-0.70;99.90
23395;DHT22;11870;53.084;18.206;2023-01-28T23:34:27;-0.70;99.90
